Flight Track Log - Related Links

Times and Time Zones

All times are in EST time to prevent confusion due to time zone crossing. See the FLG3579 flight status page for this flight to view local times or setup timezone preferences in your user account.

Time Position Orientation Groundspeed Altitude Reporting Facility
EST Latitude Longitude Course Direction KTS MPH feet Rate Location/Type
Sun 09:59:23 AM 40.8000 -73.8667 346° North 149 171 1,600  Level New York TRACON
Sun 10:00:23 AM 40.8500 -73.8833 346° North 202 232 4,000 3,150 Climbing New York TRACON
Sun 10:01:23 AM 40.8500 -73.9833 270° West 260 299 7,900 3,550 Climbing New York TRACON
Sun 10:02:23 AM 40.8333 -74.0667 255° West 269 310 11,100 2,550 Climbing New York TRACON
Sun 10:03:23 AM 40.8167 -74.1833 259° West 312 359 13,000 2,000 Climbing New York TRACON
Sun 10:04:23 AM 40.8000 -74.3000 259° West 346 398 15,100 1,500 Climbing New York TRACON
Sun 10:05:23 AM 40.7833 -74.4167 259° West 348 400 16,000 450 Climbing New York TRACON
Sun 10:06:23 AM 40.7667 -74.5500 261° West 334 384 16,000  Level New York TRACON
Sun 10:07:32 AM 40.7447 -74.6797 257° West 325 374 16,000  Level New York Center
Sun 10:08:32 AM 40.7308 -74.7883 260° West 330 380 16,000  Level New York Center
Sun 10:09:32 AM 40.7097 -74.9158 258° West 330 380 16,000 750 Level New York Center
Sun 10:10:32 AM 40.6908 -75.0350 258° West 336 387 17,500 1,650 Climbing New York Center
Sun 10:11:32 AM 40.6511 -75.1503 246° West 336 387 19,300 1,250 Climbing New York Center
Sun 10:12:32 AM 40.5989 -75.2644 239° Southwest 348 400 20,000 350 Climbing New York Center
Sun 10:13:32 AM 40.5467 -75.3811 240° Southwest 362 417 20,000  Level New York Center
Sun 10:14:32 AM 40.4919 -75.5003 239° Southwest 377 434 20,000  Level New York Center
Sun 10:15:32 AM 40.4369 -75.6194 239° Southwest 377 434 20,000  Level New York Center
Sun 10:16:32 AM 40.3800 -75.7381 238° Southwest 377 434 20,000  Level New York Center
Sun 10:17:32 AM 40.3269 -75.8539 239° Southwest 377 434 20,000  Level New York Center
Sun 10:18:32 AM 40.2789 -75.9539 238° Southwest 384 442 20,000 -150 Level New York Center
Sun 10:19:32 AM 40.2169 -76.0825 238° Southwest 390 449 19,700 -750 Descending New York Center
Sun 10:20:32 AM 40.1569 -76.2108 239° Southwest 390 449 18,500 -979 Descending New York Center
Sun 10:22:42 AM 40.0500 -76.4667 241° Southwest 377 434 16,600 -880 Descending Potomac TRACON
Sun 10:23:36 AM 40.0000 -76.5500 232° Southwest 374 430 15,800 -842 Descending Potomac TRACON
Sun 10:24:36 AM 39.9500 -76.6667 241° Southwest 369 425 15,000 -470 Descending Potomac TRACON
Sun 10:25:31 AM 39.9000 -76.7667 237° Southwest 357 411 14,900  Descending Potomac TRACON
Sun 10:26:31 AM 39.8500 -76.8833 241° Southwest 353 406 15,000 53 Climbing Potomac TRACON
Sun 10:27:25 AM 39.8000 -76.9833 237° Southwest 353 406 15,000 -105 Level Potomac TRACON
Sun 10:28:25 AM 39.7500 -77.1000 241° Southwest 349 402 14,800 -1,211 Descending Potomac TRACON
Sun 10:29:19 AM 39.7000 -77.1833 232° Southwest 333 383 12,700 -2,105 Descending Potomac TRACON
Sun 10:30:19 AM 39.6333 -77.2500 218° Southwest 308 354 10,800 -1,700 Descending Potomac TRACON
Sun 10:31:19 AM 39.5500 -77.2833 197° South 293 337 9,300 -1,339 Descending Potomac TRACON
Sun 10:32:20 AM 39.4833 -77.3333 210° Southwest 289 333 8,100 -1,148 Descending Potomac TRACON
Sun 10:33:14 AM 39.4167 -77.3667 201° Southwest 289 333 7,100 -1,105 Descending Potomac TRACON
Sun 10:34:14 AM 39.3333 -77.3667 180° South 289 333 6,000 -1,050 Descending Potomac TRACON
Sun 10:35:14 AM 39.2500 -77.3667 180° South 284 327 5,000 -1,053 Descending Potomac TRACON
Sun 10:36:08 AM 39.1833 -77.3500 169° South 282 325 4,000 -632 Descending Potomac TRACON
Sun 10:37:08 AM 39.1000 -77.3500 180° South 284 327 3,800 -368 Descending Potomac TRACON
Sun 10:38:02 AM 39.0333 -77.3500 180° South 267 307 3,300 -421 Descending Potomac TRACON
Sun 10:39:02 AM 38.9667 -77.3500 180° South 273 314 3,000 -100 Descending Potomac TRACON
Sun 10:40:02 AM 38.8833 -77.3500 180° South 266 306 3,100 -50 Climbing Potomac TRACON
Sun 10:41:02 AM 38.8167 -77.3667 191° South 229 264 2,900 -500 Descending Potomac TRACON
Sun 10:42:02 AM 38.8333 -77.4167 293° West 174 200 2,100 -574 Descending Potomac TRACON
Sun 10:42:57 AM 38.8667 -77.4333 339° North 147 169 1,800 -600 Descending Potomac TRACON
Sun 10:44:02 AM 38.9000 -77.4333 360° North 125 144 900 -831 Descending Potomac TRACON
Sun 10:46:00 AM 38.9333 -77.4500 349° North  Level FlightAware Approximate

Login

Don't have an account? Register now (free) for customized features, flight alerts, and more!